sensor_id;sensor_type;location;lat;lon;timestamp;P1;durP1;ratioP1;P2;durP2;ratioP2
82560;SDS011;72228;51.208;10.468;2023-10-09T00:00:57;5.13;;;2.47;;
82560;SDS011;72228;51.208;10.468;2023-10-09T00:03:52;5.43;;;3.10;;
82560;SDS011;72228;51.208;10.468;2023-10-09T00:06:21;4.65;;;3.15;;
82560;SDS011;72228;51.208;10.468;2023-10-09T00:09:05;4.07;;;2.70;;
82560;SDS011;72228;51.208;10.468;2023-10-09T00:11:55;7.75;;;3.15;;
82560;SDS011;72228;51.208;10.468;2023-10-09T00:14:26;5.78;;;3.00;;
82560;SDS011;72228;51.208;10.468;2023-10-09T00:17:04;4.30;;;2.63;;
82560;SDS011;72228;51.208;10.468;2023-10-09T00:19:50;5.32;;;2.63;;
82560;SDS011;72228;51.208;10.468;2023-10-09T00:22:17;6.43;;;3.25;;
82560;SDS011;72228;51.208;10.468;2023-10-09T00:24:46;4.97;;;2.63;;
82560;SDS011;72228;51.208;10.468;2023-10-09T00:27:15;4.15;;;2.53;;
82560;SDS011;72228;51.208;10.468;2023-10-09T00:29:44;4.68;;;2.90;;
82560;SDS011;72228;51.208;10.468;2023-10-09T00:32:11;6.15;;;2.55;;
82560;SDS011;72228;51.208;10.468;2023-10-09T00:34:52;4.80;;;3.10;;
82560;SDS011;72228;51.208;10.468;2023-10-09T00:37:25;4.57;;;2.75;;
82560;SDS011;72228;51.208;10.468;2023-10-09T00:39:52;5.13;;;3.13;;
82560;SDS011;72228;51.208;10.468;2023-10-09T00:42:22;5.80;;;2.80;;
82560;SDS011;72228;51.208;10.468;2023-10-09T00:44:57;6.28;;;2.90;;
82560;SDS011;72228;51.208;10.468;2023-10-09T00:47:29;6.03;;;3.45;;
82560;SDS011;72228;51.208;10.468;2023-10-09T00:50:00;6.30;;;2.92;;
82560;SDS011;72228;51.208;10.468;2023-10-09T00:52:37;7.15;;;3.35;;
82560;SDS011;72228;51.208;10.468;2023-10-09T00:55:17;5.13;;;2.97;;
82560;SDS011;72228;51.208;10.468;2023-10-09T00:57:51;5.78;;;3.03;;
82560;SDS011;72228;51.208;10.468;2023-10-09T01:00:23;5.43;;;3.22;;
82560;SDS011;72228;51.208;10.468;2023-10-09T01:03:01;9.27;;;3.22;;
82560;SDS011;72228;51.208;10.468;2023-10-09T01:05:48;8.60;;;3.60;;
82560;SDS011;72228;51.208;10.468;2023-10-09T01:08:21;4.72;;;2.97;;
82560;SDS011;72228;51.208;10.468;2023-10-09T01:11:11;5.78;;;3.00;;
82560;SDS011;72228;51.208;10.468;2023-10-09T01:13:55;8.48;;;3.47;;
82560;SDS011;72228;51.208;10.468;2023-10-09T01:16:38;5.05;;;3.17;;
82560;SDS011;72228;51.208;10.468;2023-10-09T01:19:07;6.13;;;3.35;;
82560;SDS011;72228;51.208;10.468;2023-10-09T01:21:52;7.85;;;3.47;;
82560;SDS011;72228;51.208;10.468;2023-10-09T01:24:19;5.22;;;2.78;;
82560;SDS011;72228;51.208;10.468;2023-10-09T01:26:45;9.60;;;3.22;;
82560;SDS011;72228;51.208;10.468;2023-10-09T01:29:22;5.68;;;2.78;;
82560;SDS011;72228;51.208;10.468;2023-10-09T01:31:53;7.53;;;3.38;;
82560;SDS011;72228;51.208;10.468;2023-10-09T01:34:34;7.18;;;3.10;;
82560;SDS011;72228;51.208;10.468;2023-10-09T01:37:09;8.50;;;3.47;;
82560;SDS011;72228;51.208;10.468;2023-10-09T01:40:11;5.93;;;3.15;;
82560;SDS011;72228;51.208;10.468;2023-10-09T01:43:03;5.63;;;2.90;;
82560;SDS011;72228;51.208;10.468;2023-10-09T01:45:29;5.57;;;2.97;;
82560;SDS011;72228;51.208;10.468;2023-10-09T01:48:09;7.35;;;3.38;;
82560;SDS011;72228;51.208;10.468;2023-10-09T01:50:40;6.22;;;3.33;;
82560;SDS011;72228;51.208;10.468;2023-10-09T01:53:09;7.70;;;3.10;;
82560;SDS011;72228;51.208;10.468;2023-10-09T01:55:35;6.78;;;3.22;;
82560;SDS011;72228;51.208;10.468;2023-10-09T01:58:06;5.38;;;2.95;;
82560;SDS011;72228;51.208;10.468;2023-10-09T02:00:48;5.45;;;3.45;;
82560;SDS011;72228;51.208;10.468;2023-10-09T02:03:28;6.05;;;2.92;;
82560;SDS011;72228;51.208;10.468;2023-10-09T02:06:00;8.73;;;2.83;;
82560;SDS011;72228;51.208;10.468;2023-10-09T02:08:26;5.13;;;3.00;;
82560;SDS011;72228;51.208;10.468;2023-10-09T02:10:57;8.80;;;3.25;;
82560;SDS011;72228;51.208;10.468;2023-10-09T02:13:23;5.85;;;3.40;;
82560;SDS011;72228;51.208;10.468;2023-10-09T02:15:56;4.38;;;2.70;;
82560;SDS011;72228;51.208;10.468;2023-10-09T02:18:41;10.85;;;3.80;;
82560;SDS011;72228;51.208;10.468;2023-10-09T02:21:21;6.35;;;3.22;;
82560;SDS011;72228;51.208;10.468;2023-10-09T02:24:05;7.63;;;3.28;;
82560;SDS011;72228;51.208;10.468;2023-10-09T02:26:35;5.65;;;3.13;;
82560;SDS011;72228;51.208;10.468;2023-10-09T02:29:04;6.85;;;2.95;;
82560;SDS011;72228;51.208;10.468;2023-10-09T02:31:41;6.75;;;2.83;;
82560;SDS011;72228;51.208;10.468;2023-10-09T02:34:12;8.07;;;3.00;;
82560;SDS011;72228;51.208;10.468;2023-10-09T02:36:42;5.18;;;3.00;;
82560;SDS011;72228;51.208;10.468;2023-10-09T02:39:10;8.25;;;3.28;;
82560;SDS011;72228;51.208;10.468;2023-10-09T02:41:59;6.93;;;3.17;;
82560;SDS011;72228;51.208;10.468;2023-10-09T02:44:45;9.52;;;3.53;;
82560;SDS011;72228;51.208;10.468;2023-10-09T02:47:18;4.85;;;2.58;;
82560;SDS011;72228;51.208;10.468;2023-10-09T02:49:56;3.67;;;2.75;;
82560;SDS011;72228;51.208;10.468;2023-10-09T02:52:33;6.32;;;2.65;;
82560;SDS011;72228;51.208;10.468;2023-10-09T02:55:05;6.15;;;2.90;;
82560;SDS011;72228;51.208;10.468;2023-10-09T02:57:48;5.15;;;2.70;;
82560;SDS011;72228;51.208;10.468;2023-10-09T03:00:17;5.35;;;3.20;;
82560;SDS011;72228;51.208;10.468;2023-10-09T03:02:55;9.13;;;3.03;;
82560;SDS011;72228;51.208;10.468;2023-10-09T03:05:26;5.68;;;2.50;;
82560;SDS011;72228;51.208;10.468;2023-10-09T03:07:54;9.00;;;3.50;;
82560;SDS011;72228;51.208;10.468;2023-10-09T03:10:24;4.95;;;2.85;;
82560;SDS011;72228;51.208;10.468;2023-10-09T03:12:51;10.85;;;3.20;;
82560;SDS011;72228;51.208;10.468;2023-10-09T03:15:19;4.65;;;2.90;;
82560;SDS011;72228;51.208;10.468;2023-10-09T03:17:46;7.63;;;3.67;;
82560;SDS011;72228;51.208;10.468;2023-10-09T03:20:15;5.10;;;2.85;;
82560;SDS011;72228;51.208;10.468;2023-10-09T03:22:44;6.50;;;3.00;;
82560;SDS011;72228;51.208;10.468;2023-10-09T03:25:11;6.82;;;3.30;;
82560;SDS011;72228;51.208;10.468;2023-10-09T03:27:39;9.15;;;3.15;;
82560;SDS011;72228;51.208;10.468;2023-10-09T03:30:16;7.45;;;3.58;;
82560;SDS011;72228;51.208;10.468;2023-10-09T03:32:52;6.78;;;3.15;;
82560;SDS011;72228;51.208;10.468;2023-10-09T03:35:20;5.65;;;3.03;;
82560;SDS011;72228;51.208;10.468;2023-10-09T03:37:54;5.75;;;2.92;;
82560;SDS011;72228;51.208;10.468;2023-10-09T03:40:31;5.85;;;2.83;;
82560;SDS011;72228;51.208;10.468;2023-10-09T03:42:57;8.05;;;3.30;;
82560;SDS011;72228;51.208;10.468;2023-10-09T03:45:23;8.85;;;2.85;;
82560;SDS011;72228;51.208;10.468;2023-10-09T03:47:54;7.25;;;3.03;;
82560;SDS011;72228;51.208;10.468;2023-10-09T03:50:43;5.70;;;2.92;;
82560;SDS011;72228;51.208;10.468;2023-10-09T03:53:11;5.38;;;3.10;;
82560;SDS011;72228;51.208;10.468;2023-10-09T03:55:38;6.75;;;2.70;;
82560;SDS011;72228;51.208;10.468;2023-10-09T03:58:07;3.70;;;2.65;;
82560;SDS011;72228;51.208;10.468;2023-10-09T04:00:37;6.32;;;3.15;;
82560;SDS011;72228;51.208;10.468;2023-10-09T04:03:14;5.97;;;2.80;;
82560;SDS011;72228;51.208;10.468;2023-10-09T04:05:41;4.88;;;2.83;;
82560;SDS011;72228;51.208;10.468;2023-10-09T04:08:09;5.97;;;3.08;;
82560;SDS011;72228;51.208;10.468;2023-10-09T04:10:44;7.47;;;3.22;;
82560;SDS011;72228;51.208;10.468;2023-10-09T04:13:17;5.15;;;2.63;;
82560;SDS011;72228;51.208;10.468;2023-10-09T04:15:51;7.32;;;2.95;;
82560;SDS011;72228;51.208;10.468;2023-10-09T04:18:19;6.95;;;3.00;;
82560;SDS011;72228;51.208;10.468;2023-10-09T04:20:46;5.57;;;3.00;;
82560;SDS011;72228;51.208;10.468;2023-10-09T04:23:30;6.00;;;3.22;;
82560;SDS011;72228;51.208;10.468;2023-10-09T04:26:22;6.72;;;3.22;;
82560;SDS011;72228;51.208;10.468;2023-10-09T04:28:50;6.70;;;2.92;;
82560;SDS011;72228;51.208;10.468;2023-10-09T04:31:19;5.53;;;2.95;;
82560;SDS011;72228;51.208;10.468;2023-10-09T04:33:47;7.15;;;3.78;;
82560;SDS011;72228;51.208;10.468;2023-10-09T04:36:31;5.30;;;2.83;;
82560;SDS011;72228;51.208;10.468;2023-10-09T04:39:11;5.65;;;3.40;;
82560;SDS011;72228;51.208;10.468;2023-10-09T04:41:37;7.70;;;3.25;;
82560;SDS011;72228;51.208;10.468;2023-10-09T04:44:09;12.77;;;3.40;;
82560;SDS011;72228;51.208;10.468;2023-10-09T04:46:48;7.65;;;3.80;;
82560;SDS011;72228;51.208;10.468;2023-10-09T04:49:33;5.60;;;3.15;;
82560;SDS011;72228;51.208;10.468;2023-10-09T04:52:19;7.80;;;2.83;;
82560;SDS011;72228;51.208;10.468;2023-10-09T04:55:05;6.30;;;3.25;;
82560;SDS011;72228;51.208;10.468;2023-10-09T04:57:32;10.07;;;4.07;;
82560;SDS011;72228;51.208;10.468;2023-10-09T05:00:08;8.52;;;3.80;;
82560;SDS011;72228;51.208;10.468;2023-10-09T05:05:25;6.32;;;3.28;;
82560;SDS011;72228;51.208;10.468;2023-10-09T05:08:13;8.07;;;3.67;;
82560;SDS011;72228;51.208;10.468;2023-10-09T05:13:39;4.93;;;3.03;;
82560;SDS011;72228;51.208;10.468;2023-10-09T05:16:10;10.52;;;3.65;;
82560;SDS011;72228;51.208;10.468;2023-10-09T05:18:52;8.43;;;3.53;;
82560;SDS011;72228;51.208;10.468;2023-10-09T05:24:02;9.27;;;4.20;;
82560;SDS011;72228;51.208;10.468;2023-10-09T05:26:55;7.07;;;3.80;;
82560;SDS011;72228;51.208;10.468;2023-10-09T05:29:41;6.05;;;3.92;;
82560;SDS011;72228;51.208;10.468;2023-10-09T05:32:24;6.60;;;3.30;;
82560;SDS011;72228;51.208;10.468;2023-10-09T05:34:55;8.15;;;3.67;;
82560;SDS011;72228;51.208;10.468;2023-10-09T05:37:28;10.85;;;4.20;;
82560;SDS011;72228;51.208;10.468;2023-10-09T05:40:01;9.75;;;4.75;;
82560;SDS011;72228;51.208;10.468;2023-10-09T05:42:32;9.52;;;4.22;;
82560;SDS011;72228;51.208;10.468;2023-10-09T05:45:06;8.90;;;4.15;;
82560;SDS011;72228;51.208;10.468;2023-10-09T05:47:53;9.65;;;4.13;;
82560;SDS011;72228;51.208;10.468;2023-10-09T05:50:21;10.52;;;4.43;;
82560;SDS011;72228;51.208;10.468;2023-10-09T05:52:48;9.57;;;4.28;;
82560;SDS011;72228;51.208;10.468;2023-10-09T05:55:28;7.88;;;3.65;;
82560;SDS011;72228;51.208;10.468;2023-10-09T05:58:34;6.40;;;3.67;;
82560;SDS011;72228;51.208;10.468;2023-10-09T06:01:18;7.78;;;3.60;;
82560;SDS011;72228;51.208;10.468;2023-10-09T06:04:04;8.32;;;4.15;;
82560;SDS011;72228;51.208;10.468;2023-10-09T06:06:42;7.85;;;4.50;;
82560;SDS011;72228;51.208;10.468;2023-10-09T06:09:12;12.27;;;4.95;;
82560;SDS011;72228;51.208;10.468;2023-10-09T06:11:38;8.65;;;4.47;;
82560;SDS011;72228;51.208;10.468;2023-10-09T06:14:17;9.52;;;4.80;;
82560;SDS011;72228;51.208;10.468;2023-10-09T06:16:56;14.77;;;7.70;;
82560;SDS011;72228;51.208;10.468;2023-10-09T06:19:26;19.52;;;6.85;;
82560;SDS011;72228;51.208;10.468;2023-10-09T06:21:57;13.63;;;7.15;;
82560;SDS011;72228;51.208;10.468;2023-10-09T06:24:42;20.00;;;8.68;;
82560;SDS011;72228;51.208;10.468;2023-10-09T06:27:20;19.83;;;10.15;;
82560;SDS011;72228;51.208;10.468;2023-10-09T06:29:56;29.80;;;17.38;;
82560;SDS011;72228;51.208;10.468;2023-10-09T06:32:41;24.60;;;14.30;;
82560;SDS011;72228;51.208;10.468;2023-10-09T06:35:17;33.40;;;16.92;;
82560;SDS011;72228;51.208;10.468;2023-10-09T06:37:56;35.45;;;21.33;;
82560;SDS011;72228;51.208;10.468;2023-10-09T06:40:30;30.85;;;17.67;;
82560;SDS011;72228;51.208;10.468;2023-10-09T06:43:14;25.85;;;13.90;;
82560;SDS011;72228;51.208;10.468;2023-10-09T06:45:43;25.45;;;15.30;;
82560;SDS011;72228;51.208;10.468;2023-10-09T06:48:09;18.17;;;8.77;;
82560;SDS011;72228;51.208;10.468;2023-10-09T06:50:56;12.68;;;7.80;;
82560;SDS011;72228;51.208;10.468;2023-10-09T06:53:44;12.60;;;6.82;;
82560;SDS011;72228;51.208;10.468;2023-10-09T06:56:12;9.27;;;4.78;;
82560;SDS011;72228;51.208;10.468;2023-10-09T06:58:51;13.43;;;5.47;;
82560;SDS011;72228;51.208;10.468;2023-10-09T07:01:21;17.55;;;7.25;;
82560;SDS011;72228;51.208;10.468;2023-10-09T07:03:53;15.82;;;8.25;;
82560;SDS011;72228;51.208;10.468;2023-10-09T07:06:20;20.10;;;10.02;;
82560;SDS011;72228;51.208;10.468;2023-10-09T07:08:56;19.10;;;8.23;;
82560;SDS011;72228;51.208;10.468;2023-10-09T07:11:46;14.40;;;7.47;;
82560;SDS011;72228;51.208;10.468;2023-10-09T07:14:19;12.57;;;7.63;;
82560;SDS011;72228;51.208;10.468;2023-10-09T07:17:03;17.10;;;6.75;;
82560;SDS011;72228;51.208;10.468;2023-10-09T07:19:41;15.75;;;5.97;;
82560;SDS011;72228;51.208;10.468;2023-10-09T07:22:08;12.60;;;6.38;;
82560;SDS011;72228;51.208;10.468;2023-10-09T07:27:25;12.82;;;5.10;;
82560;SDS011;72228;51.208;10.468;2023-10-09T07:30:14;12.00;;;6.03;;
82560;SDS011;72228;51.208;10.468;2023-10-09T07:33:05;11.18;;;6.00;;
82560;SDS011;72228;51.208;10.468;2023-10-09T07:35:36;11.38;;;6.60;;
82560;SDS011;72228;51.208;10.468;2023-10-09T07:40:50;10.15;;;5.05;;
82560;SDS011;72228;51.208;10.468;2023-10-09T07:43:26;9.02;;;5.10;;
82560;SDS011;72228;51.208;10.468;2023-10-09T07:46:12;8.98;;;4.70;;
82560;SDS011;72228;51.208;10.468;2023-10-09T07:49:04;14.05;;;5.35;;
82560;SDS011;72228;51.208;10.468;2023-10-09T07:51:38;10.70;;;5.05;;
82560;SDS011;72228;51.208;10.468;2023-10-09T07:54:09;9.95;;;5.35;;
82560;SDS011;72228;51.208;10.468;2023-10-09T07:56:40;11.23;;;4.75;;
82560;SDS011;72228;51.208;10.468;2023-10-09T07:59:07;14.00;;;5.32;;
82560;SDS011;72228;51.208;10.468;2023-10-09T08:01:39;12.73;;;5.05;;
82560;SDS011;72228;51.208;10.468;2023-10-09T08:04:21;10.85;;;4.80;;
82560;SDS011;72228;51.208;10.468;2023-10-09T08:07:04;12.15;;;5.30;;
82560;SDS011;72228;51.208;10.468;2023-10-09T08:10:10;12.70;;;6.57;;
82560;SDS011;72228;51.208;10.468;2023-10-09T08:12:45;12.23;;;5.72;;
82560;SDS011;72228;51.208;10.468;2023-10-09T08:15:14;16.00;;;6.68;;
82560;SDS011;72228;51.208;10.468;2023-10-09T08:17:48;12.15;;;5.78;;
82560;SDS011;72228;51.208;10.468;2023-10-09T08:20:33;10.73;;;5.82;;
82560;SDS011;72228;51.208;10.468;2023-10-09T08:23:16;12.15;;;5.72;;
82560;SDS011;72228;51.208;10.468;2023-10-09T08:26:01;11.13;;;6.35;;
82560;SDS011;72228;51.208;10.468;2023-10-09T08:28:43;10.88;;;6.13;;
82560;SDS011;72228;51.208;10.468;2023-10-09T08:31:14;11.05;;;6.10;;
82560;SDS011;72228;51.208;10.468;2023-10-09T08:34:11;10.32;;;5.93;;
82560;SDS011;72228;51.208;10.468;2023-10-09T08:36:49;12.48;;;6.38;;
82560;SDS011;72228;51.208;10.468;2023-10-09T08:39:18;14.07;;;5.45;;
82560;SDS011;72228;51.208;10.468;2023-10-09T08:41:52;12.10;;;6.18;;
82560;SDS011;72228;51.208;10.468;2023-10-09T08:44:22;13.05;;;6.35;;
82560;SDS011;72228;51.208;10.468;2023-10-09T08:46:50;10.98;;;5.80;;
82560;SDS011;72228;51.208;10.468;2023-10-09T08:49:17;15.82;;;6.85;;
82560;SDS011;72228;51.208;10.468;2023-10-09T08:51:43;30.27;;;9.70;;
82560;SDS011;72228;51.208;10.468;2023-10-09T08:54:11;15.52;;;7.60;;
82560;SDS011;72228;51.208;10.468;2023-10-09T08:56:40;19.60;;;8.43;;
82560;SDS011;72228;51.208;10.468;2023-10-09T08:59:15;12.95;;;6.50;;
82560;SDS011;72228;51.208;10.468;2023-10-09T09:01:45;18.38;;;8.02;;
82560;SDS011;72228;51.208;10.468;2023-10-09T09:07:06;31.80;;;12.70;;
82560;SDS011;72228;51.208;10.468;2023-10-09T09:09:58;22.35;;;8.55;;
82560;SDS011;72228;51.208;10.468;2023-10-09T09:12:51;18.17;;;7.57;;
82560;SDS011;72228;51.208;10.468;2023-10-09T09:15:27;25.95;;;10.50;;
82560;SDS011;72228;51.208;10.468;2023-10-09T09:18:03;18.48;;;7.07;;
82560;SDS011;72228;51.208;10.468;2023-10-09T09:20:36;21.15;;;6.53;;
82560;SDS011;72228;51.208;10.468;2023-10-09T09:23:09;20.85;;;7.30;;
82560;SDS011;72228;51.208;10.468;2023-10-09T09:25:44;13.68;;;6.50;;
82560;SDS011;72228;51.208;10.468;2023-10-09T09:28:13;22.13;;;7.20;;
82560;SDS011;72228;51.208;10.468;2023-10-09T09:30:46;13.95;;;6.85;;
82560;SDS011;72228;51.208;10.468;2023-10-09T09:33:20;13.75;;;7.53;;
82560;SDS011;72228;51.208;10.468;2023-10-09T09:36:05;18.25;;;7.50;;
82560;SDS011;72228;51.208;10.468;2023-10-09T09:38:33;15.32;;;7.35;;
82560;SDS011;72228;51.208;10.468;2023-10-09T09:41:19;17.40;;;7.43;;
82560;SDS011;72228;51.208;10.468;2023-10-09T09:43:55;13.88;;;6.57;;
82560;SDS011;72228;51.208;10.468;2023-10-09T09:46:33;11.82;;;5.40;;
82560;SDS011;72228;51.208;10.468;2023-10-09T09:49:01;9.02;;;4.68;;
82560;SDS011;72228;51.208;10.468;2023-10-09T09:51:31;9.55;;;5.03;;
82560;SDS011;72228;51.208;10.468;2023-10-09T09:54:01;11.38;;;5.10;;
82560;SDS011;72228;51.208;10.468;2023-10-09T09:56:28;10.02;;;4.78;;
82560;SDS011;72228;51.208;10.468;2023-10-09T09:58:57;12.00;;;5.22;;
82560;SDS011;72228;51.208;10.468;2023-10-09T10:01:28;8.52;;;4.45;;
82560;SDS011;72228;51.208;10.468;2023-10-09T10:06:43;13.30;;;6.13;;
82560;SDS011;72228;51.208;10.468;2023-10-09T10:09:10;10.20;;;5.10;;
82560;SDS011;72228;51.208;10.468;2023-10-09T10:12:07;9.45;;;5.07;;
82560;SDS011;72228;51.208;10.468;2023-10-09T10:14:57;15.82;;;7.57;;
82560;SDS011;72228;51.208;10.468;2023-10-09T10:20:59;17.67;;;8.80;;
82560;SDS011;72228;51.208;10.468;2023-10-09T10:23:42;11.30;;;4.93;;
82560;SDS011;72228;51.208;10.468;2023-10-09T10:26:16;13.48;;;6.85;;
82560;SDS011;72228;51.208;10.468;2023-10-09T10:34:23;9.85;;;5.90;;
82560;SDS011;72228;51.208;10.468;2023-10-09T10:36:50;16.95;;;10.68;;
82560;SDS011;72228;51.208;10.468;2023-10-09T10:39:26;10.95;;;5.50;;
82560;SDS011;72228;51.208;10.468;2023-10-09T10:42:24;8.70;;;4.75;;
82560;SDS011;72228;51.208;10.468;2023-10-09T10:45:00;9.43;;;6.00;;
82560;SDS011;72228;51.208;10.468;2023-10-09T10:47:28;15.75;;;5.50;;
82560;SDS011;72228;51.208;10.468;2023-10-09T10:50:00;16.00;;;6.13;;
82560;SDS011;72228;51.208;10.468;2023-10-09T10:52:46;9.90;;;5.25;;
82560;SDS011;72228;51.208;10.468;2023-10-09T10:55:23;13.80;;;5.32;;
82560;SDS011;72228;51.208;10.468;2023-10-09T10:58:01;9.30;;;4.78;;
82560;SDS011;72228;51.208;10.468;2023-10-09T11:00:35;10.07;;;5.25;;
82560;SDS011;72228;51.208;10.468;2023-10-09T11:03:20;11.38;;;4.45;;
82560;SDS011;72228;51.208;10.468;2023-10-09T11:06:01;12.18;;;5.03;;
82560;SDS011;72228;51.208;10.468;2023-10-09T11:08:44;10.02;;;5.03;;
82560;SDS011;72228;51.208;10.468;2023-10-09T11:11:20;9.65;;;4.25;;
82560;SDS011;72228;51.208;10.468;2023-10-09T11:13:47;11.52;;;4.90;;
82560;SDS011;72228;51.208;10.468;2023-10-09T11:16:24;11.40;;;6.68;;
82560;SDS011;72228;51.208;10.468;2023-10-09T11:19:13;10.23;;;5.50;;
82560;SDS011;72228;51.208;10.468;2023-10-09T11:21:53;9.93;;;4.38;;
82560;SDS011;72228;51.208;10.468;2023-10-09T11:24:33;7.88;;;4.03;;
82560;SDS011;72228;51.208;10.468;2023-10-09T11:27:06;8.07;;;4.32;;
82560;SDS011;72228;51.208;10.468;2023-10-09T11:29:35;10.90;;;4.40;;
82560;SDS011;72228;51.208;10.468;2023-10-09T11:32:16;12.02;;;4.18;;
82560;SDS011;72228;51.208;10.468;2023-10-09T11:34:44;7.97;;;4.15;;
82560;SDS011;72228;51.208;10.468;2023-10-09T11:37:23;8.75;;;3.83;;
82560;SDS011;72228;51.208;10.468;2023-10-09T11:39:58;7.95;;;3.80;;
82560;SDS011;72228;51.208;10.468;2023-10-09T11:42:29;8.20;;;3.83;;
82560;SDS011;72228;51.208;10.468;2023-10-09T11:45:03;9.07;;;4.07;;
82560;SDS011;72228;51.208;10.468;2023-10-09T11:47:45;9.48;;;4.50;;
82560;SDS011;72228;51.208;10.468;2023-10-09T11:53:40;9.05;;;4.20;;
82560;SDS011;72228;51.208;10.468;2023-10-09T11:56:22;8.32;;;3.97;;
82560;SDS011;72228;51.208;10.468;2023-10-09T11:58:52;9.27;;;3.95;;
82560;SDS011;72228;51.208;10.468;2023-10-09T12:01:19;12.35;;;4.60;;
82560;SDS011;72228;51.208;10.468;2023-10-09T12:03:48;10.90;;;4.95;;
82560;SDS011;72228;51.208;10.468;2023-10-09T12:06:20;6.82;;;3.92;;
82560;SDS011;72228;51.208;10.468;2023-10-09T12:08:49;9.70;;;4.72;;
82560;SDS011;72228;51.208;10.468;2023-10-09T12:11:16;7.32;;;3.85;;
82560;SDS011;72228;51.208;10.468;2023-10-09T12:13:48;10.82;;;4.65;;
82560;SDS011;72228;51.208;10.468;2023-10-09T12:16:14;8.13;;;4.20;;
82560;SDS011;72228;51.208;10.468;2023-10-09T12:18:43;10.88;;;4.20;;
82560;SDS011;72228;51.208;10.468;2023-10-09T12:21:18;8.75;;;4.80;;
82560;SDS011;72228;51.208;10.468;2023-10-09T12:23:45;9.32;;;4.72;;
82560;SDS011;72228;51.208;10.468;2023-10-09T12:26:13;10.50;;;4.53;;
82560;SDS011;72228;51.208;10.468;2023-10-09T12:28:42;11.63;;;4.40;;
82560;SDS011;72228;51.208;10.468;2023-10-09T12:31:14;8.65;;;3.90;;
82560;SDS011;72228;51.208;10.468;2023-10-09T12:33:41;11.23;;;4.53;;
82560;SDS011;72228;51.208;10.468;2023-10-09T12:36:13;7.85;;;4.13;;
82560;SDS011;72228;51.208;10.468;2023-10-09T12:38:46;7.47;;;3.70;;
82560;SDS011;72228;51.208;10.468;2023-10-09T12:41:24;10.65;;;4.43;;
82560;SDS011;72228;51.208;10.468;2023-10-09T12:43:54;8.68;;;4.43;;
82560;SDS011;72228;51.208;10.468;2023-10-09T12:46:20;9.13;;;4.65;;
82560;SDS011;72228;51.208;10.468;2023-10-09T12:48:51;8.02;;;4.95;;
82560;SDS011;72228;51.208;10.468;2023-10-09T12:51:20;9.60;;;5.03;;
82560;SDS011;72228;51.208;10.468;2023-10-09T12:53:55;8.10;;;4.00;;
82560;SDS011;72228;51.208;10.468;2023-10-09T12:56:27;9.88;;;4.45;;
82560;SDS011;72228;51.208;10.468;2023-10-09T12:59:01;11.18;;;5.10;;
82560;SDS011;72228;51.208;10.468;2023-10-09T13:01:30;9.00;;;3.85;;
82560;SDS011;72228;51.208;10.468;2023-10-09T13:04:14;9.88;;;4.93;;
82560;SDS011;72228;51.208;10.468;2023-10-09T13:06:43;11.68;;;4.90;;
82560;SDS011;72228;51.208;10.468;2023-10-09T13:09:10;7.25;;;5.00;;
82560;SDS011;72228;51.208;10.468;2023-10-09T13:11:38;10.15;;;4.93;;
82560;SDS011;72228;51.208;10.468;2023-10-09T13:14:06;8.02;;;4.20;;
82560;SDS011;72228;51.208;10.468;2023-10-09T13:16:42;8.32;;;4.45;;
82560;SDS011;72228;51.208;10.468;2023-10-09T13:19:09;9.63;;;5.38;;
82560;SDS011;72228;51.208;10.468;2023-10-09T13:21:35;8.52;;;4.70;;
82560;SDS011;72228;51.208;10.468;2023-10-09T13:24:04;9.00;;;5.05;;
82560;SDS011;72228;51.208;10.468;2023-10-09T13:26:30;12.95;;;5.05;;
82560;SDS011;72228;51.208;10.468;2023-10-09T13:28:58;13.40;;;6.10;;
82560;SDS011;72228;51.208;10.468;2023-10-09T13:31:25;14.30;;;6.43;;
82560;SDS011;72228;51.208;10.468;2023-10-09T13:33:52;18.08;;;10.65;;
82560;SDS011;72228;51.208;10.468;2023-10-09T13:36:25;13.57;;;7.68;;
82560;SDS011;72228;51.208;10.468;2023-10-09T13:39:00;13.13;;;5.80;;
82560;SDS011;72228;51.208;10.468;2023-10-09T13:41:47;9.90;;;5.75;;
82560;SDS011;72228;51.208;10.468;2023-10-09T13:44:15;7.07;;;4.25;;
82560;SDS011;72228;51.208;10.468;2023-10-09T13:46:41;9.32;;;4.90;;
82560;SDS011;72228;51.208;10.468;2023-10-09T13:49:07;10.85;;;5.32;;
82560;SDS011;72228;51.208;10.468;2023-10-09T13:51:38;9.68;;;5.30;;
82560;SDS011;72228;51.208;10.468;2023-10-09T13:54:10;10.30;;;6.00;;
82560;SDS011;72228;51.208;10.468;2023-10-09T13:56:44;9.82;;;5.10;;
82560;SDS011;72228;51.208;10.468;2023-10-09T13:59:09;10.23;;;5.00;;
82560;SDS011;72228;51.208;10.468;2023-10-09T14:01:36;10.75;;;4.97;;
82560;SDS011;72228;51.208;10.468;2023-10-09T14:04:04;9.73;;;4.95;;
82560;SDS011;72228;51.208;10.468;2023-10-09T14:06:33;11.63;;;6.47;;
82560;SDS011;72228;51.208;10.468;2023-10-09T14:09:01;8.10;;;5.10;;
82560;SDS011;72228;51.208;10.468;2023-10-09T14:11:35;17.50;;;10.75;;
82560;SDS011;72228;51.208;10.468;2023-10-09T14:14:05;14.32;;;5.97;;
82560;SDS011;72228;51.208;10.468;2023-10-09T14:16:38;11.70;;;5.53;;
82560;SDS011;72228;51.208;10.468;2023-10-09T14:19:08;14.18;;;6.15;;
82560;SDS011;72228;51.208;10.468;2023-10-09T14:21:38;11.13;;;5.78;;
82560;SDS011;72228;51.208;10.468;2023-10-09T14:24:06;11.25;;;6.05;;
82560;SDS011;72228;51.208;10.468;2023-10-09T14:26:41;14.38;;;7.72;;
82560;SDS011;72228;51.208;10.468;2023-10-09T14:29:11;16.05;;;8.10;;
82560;SDS011;72228;51.208;10.468;2023-10-09T14:31:42;12.85;;;7.28;;
82560;SDS011;72228;51.208;10.468;2023-10-09T14:34:09;12.07;;;6.30;;
82560;SDS011;72228;51.208;10.468;2023-10-09T14:36:35;16.77;;;8.93;;
82560;SDS011;72228;51.208;10.468;2023-10-09T14:39:01;10.02;;;5.80;;
82560;SDS011;72228;51.208;10.468;2023-10-09T14:41:29;14.57;;;6.32;;
82560;SDS011;72228;51.208;10.468;2023-10-09T14:43:58;171.95;;;81.65;;
82560;SDS011;72228;51.208;10.468;2023-10-09T14:46:25;231.15;;;149.60;;
82560;SDS011;72228;51.208;10.468;2023-10-09T14:48:51;169.70;;;83.32;;
82560;SDS011;72228;51.208;10.468;2023-10-09T14:51:22;75.50;;;36.97;;
82560;SDS011;72228;51.208;10.468;2023-10-09T14:53:55;53.35;;;25.63;;
82560;SDS011;72228;51.208;10.468;2023-10-09T14:56:26;57.95;;;27.63;;
82560;SDS011;72228;51.208;10.468;2023-10-09T14:59:13;86.07;;;41.22;;
82560;SDS011;72228;51.208;10.468;2023-10-09T15:01:38;23.05;;;14.70;;
82560;SDS011;72228;51.208;10.468;2023-10-09T15:04:04;35.88;;;18.88;;
82560;SDS011;72228;51.208;10.468;2023-10-09T15:06:30;42.22;;;20.50;;
82560;SDS011;72228;51.208;10.468;2023-10-09T15:08:56;50.67;;;30.30;;
82560;SDS011;72228;51.208;10.468;2023-10-09T15:11:24;25.10;;;13.52;;
82560;SDS011;72228;51.208;10.468;2023-10-09T15:13:54;17.40;;;10.93;;
82560;SDS011;72228;51.208;10.468;2023-10-09T15:16:23;23.88;;;14.52;;
82560;SDS011;72228;51.208;10.468;2023-10-09T15:18:53;20.13;;;11.27;;
82560;SDS011;72228;51.208;10.468;2023-10-09T15:21:20;14.20;;;7.70;;
82560;SDS011;72228;51.208;10.468;2023-10-09T15:23:52;43.70;;;21.88;;
82560;SDS011;72228;51.208;10.468;2023-10-09T15:26:22;39.22;;;19.30;;
82560;SDS011;72228;51.208;10.468;2023-10-09T15:28:51;24.42;;;11.95;;
82560;SDS011;72228;51.208;10.468;2023-10-09T15:31:19;53.30;;;24.52;;
82560;SDS011;72228;51.208;10.468;2023-10-09T15:33:47;38.63;;;19.92;;
82560;SDS011;72228;51.208;10.468;2023-10-09T15:36:18;44.65;;;21.42;;
82560;SDS011;72228;51.208;10.468;2023-10-09T15:38:49;29.95;;;13.13;;